OCC weather

Francisco De Orellana Airport
Coca, Orellana Province, Ecuador

Public forecast

Using degrees Celsius for public forecast. Weather courtesy of forecast.io.

METAR (pilot weather report)

Retrieved 2019/08/23 23:00 UTC (1 hour ago):

SECO 232300Z 20003KT 9999 FEW026 BKN100 28/22 Q1013 RMK A2992

TAF (pilot weather forecast)

Forecast is more than 12 hours old.

Closest forecast is Nueva Loja Airport, 34.1 nm (63.2 km) NNE. Retrieved 2018/09/09 12:03 UTC (12 months ago):

TAF TAF SCDA 091040Z 0912/1012 19004KT 9999 OVC020 TX18/0917Z TN16/1006ZLVA0571 091200 GG EBBRYZYX EBBRYZYZ EGGYYBYA KMKMYTYX KWBCYMYX MPLBYFYX MPTOYMYX 091200 SEQUYZYX SAEQ01 SEQU 091200 RRB METAR SENL 091200Z 36002KT 9999 SCT030 BKN100 22/21 Q1013 RMK A2994